Flight Track Log - Related Links

Times and Time Zones

All times are in EDT time to prevent confusion due to time zone crossing. See the TRS1646 flight status page for this flight to view local times or setup timezone preferences in your user account.

Time Position Orientation Groundspeed Altitude Reporting Facility
EDT Latitude Longitude Course Direction KTS MPH feet Rate Location/Type
Fri 01:42:26 PM 33.6547 -117.8811 216° Southwest 153 176 39,000  Level Los Angeles Center
Fri 01:43:03 PM 33.6333 -117.9000 216° Southwest 172 198 2,200 -20,505 Descending Southern California TRACON
Fri 01:44:09 PM 33.5667 -117.9000 180° South 217 250 3,800 2,080 Climbing Southern California TRACON
Fri 01:45:33 PM 33.5550 -117.8003 98° East 244 281 7,400 2,507 Climbing Los Angeles Center
Fri 01:46:35 PM 33.5625 -117.7044 85° East 283 326 9,900 2,323 Climbing Los Angeles Center
Fri 01:47:37 PM 33.5728 -117.5967 83° East 315 362 12,200 2,468 Climbing Los Angeles Center
Fri 01:48:39 PM 33.5817 -117.4797 85° East 347 399 15,000 2,806 Climbing Los Angeles Center
Fri 01:49:41 PM 33.5536 -117.3361 103° East 371 427 18,000 2,516 Climbing Los Angeles Center
Fri 01:50:43 PM 33.5025 -117.2256 119° Southeast 380 437 20,200 2,274 Climbing Los Angeles Center
Fri 01:51:45 PM 33.4186 -117.1417 140° Southeast 392 451 22,700 2,081 Climbing Los Angeles Center
Fri 01:52:47 PM 33.3344 -117.0533 139° Southeast 401 461 24,500 1,597 Climbing Los Angeles Center
Fri 01:53:49 PM 33.2644 -116.9778 138° Southeast 415 478 26,000 1,872 Climbing Los Angeles Center
Fri 01:54:52 PM 33.1372 -116.8444 139° Southeast 431 496 28,400 1,968 Climbing Los Angeles Center
Fri 01:55:54 PM 33.0414 -116.7461 139° Southeast 448 516 30,100 1,548 Climbing Los Angeles Center
Fri 01:56:56 PM 32.9450 -116.6483 140° Southeast 456 525 31,600 1,306 Climbing Los Angeles Center
Fri 01:57:58 PM 32.8475 -116.5494 140° Southeast 465 535 32,800 1,355 Climbing Los Angeles Center
Fri 01:59:00 PM 32.7658 -116.3969 122° Southeast 524 603 34,400 1,403 Climbing Los Angeles Center
Fri 02:00:02 PM 32.7644 -116.2367 91° East 498 573 35,700 1,258 Climbing Los Angeles Center
Fri 02:01:04 PM 32.7628 -116.0778 91° East 490 564 37,000 629 Climbing Los Angeles Center
Fri 02:02:06 PM 32.7589 -115.9175 92° East 489 563 37,000  Level Los Angeles Center
Fri 02:03:09 PM 32.7547 -115.7244 91° East 489 563 37,000  Level Los Angeles Center
Fri 02:04:11 PM 32.7506 -115.5642 92° East 488 562 37,000  Level Los Angeles Center
Fri 02:05:13 PM 32.7092 -115.4147 108° East 490 564 37,000  Level Los Angeles Center
Fri 02:06:15 PM 32.6481 -115.2750 117° Southeast 478 550 37,000  Level Los Angeles Center
Fri 02:08:00 PM 32.5201 -115.0767 129° Southeast  Level FlightAware Approximate
Fri 02:15:00 PM 31.9757 -114.3176 131° Southeast  Level FlightAware Approximate
Fri 02:16:00 PM 31.8967 -114.2107 131° Southeast  Level FlightAware Approximate
Fri 02:17:00 PM 31.8178 -114.1039 131° Southeast  Level FlightAware Approximate
Fri 02:18:00 PM 31.7387 -113.9973 131° Southeast  Level FlightAware Approximate
Fri 02:19:00 PM 31.6595 -113.8909 131° Southeast  Level FlightAware Approximate
Fri 02:20:00 PM 31.5802 -113.7847 131° Southeast  Level FlightAware Approximate
Fri 02:21:00 PM 31.5009 -113.6787 131° Southeast  Level FlightAware Approximate
Fri 02:22:00 PM 31.4215 -113.5729 131° Southeast  Level FlightAware Approximate
Fri 02:23:00 PM 31.3371 -113.4732 142° Southeast  Level FlightAware Approximate
Fri 02:24:00 PM 31.2420 -113.3870 142° Southeast  Level FlightAware Approximate
Fri 02:25:00 PM 31.1469 -113.3010 142° Southeast  Level FlightAware Approximate
Fri 02:26:00 PM 31.0517 -113.2152 142° Southeast  Level FlightAware Approximate
Fri 02:27:00 PM 30.9564 -113.1296 142° Southeast  Level FlightAware Approximate
Fri 02:28:00 PM 30.8611 -113.0441 142° Southeast  Level FlightAware Approximate
Fri 02:29:00 PM 30.7658 -112.9588 142° Southeast  Level FlightAware Approximate
Fri 02:30:00 PM 30.6703 -112.8737 142° Southeast  Level FlightAware Approximate
Fri 02:31:00 PM 30.5748 -112.7887 143° Southeast  Level FlightAware Approximate
Fri 02:32:00 PM 30.4792 -112.7041 143° Southeast  Level FlightAware Approximate
Fri 02:33:00 PM 30.3835 -112.6196 143° Southeast  Level FlightAware Approximate
Fri 02:34:00 PM 30.2878 -112.5353 143° Southeast  Level FlightAware Approximate
Fri 02:35:00 PM 30.1919 -112.4512 143° Southeast  Level FlightAware Approximate
Fri 02:36:00 PM 30.0961 -112.3672 143° Southeast  Level FlightAware Approximate
Fri 02:37:00 PM 30.0001 -112.2834 143° Southeast  Level FlightAware Approximate
Fri 02:38:00 PM 29.9021 -112.2031 145° Southeast  Level FlightAware Approximate
Fri 02:39:00 PM 29.8042 -112.1225 143° Southeast  Level FlightAware Approximate
Fri 02:40:00 PM 29.7081 -112.0393 143° Southeast  Level FlightAware Approximate
Fri 02:41:00 PM 29.6119 -111.9562 143° Southeast  Level FlightAware Approximate
Fri 02:42:00 PM 29.5157 -111.8732 143° Southeast  Level FlightAware Approximate
Fri 02:43:00 PM 29.4193 -111.7907 144° Southeast  Level FlightAware Approximate
Fri 02:44:00 PM 29.3225 -111.7088 144° Southeast  Level FlightAware Approximate
Fri 02:45:00 PM 29.2257 -111.6271 144° Southeast  Level FlightAware Approximate
Fri 02:46:00 PM 29.1288 -111.5455 144° Southeast  Level FlightAware Approximate
Fri 02:47:00 PM 29.0318 -111.4641 144° Southeast  Level FlightAware Approximate
Fri 02:48:00 PM 28.9348 -111.3828 144° Southeast  Level FlightAware Approximate
Fri 02:49:00 PM 28.8378 -111.3017 144° Southeast  Level FlightAware Approximate
Fri 02:50:00 PM 28.7407 -111.2207 144° Southeast  Level FlightAware Approximate
Fri 02:51:00 PM 28.6436 -111.1399 144° Southeast  Level FlightAware Approximate
Fri 02:52:00 PM 28.5464 -111.0592 144° Southeast  Level FlightAware Approximate
Fri 02:53:00 PM 28.4491 -110.9787 144° Southeast  Level FlightAware Approximate
Fri 02:54:00 PM 28.3519 -110.8983 144° Southeast  Level FlightAware Approximate
Fri 02:55:00 PM 28.2545 -110.8181 144° Southeast  Level FlightAware Approximate
Fri 02:56:00 PM 28.1571 -110.7380 144° Southeast  Level FlightAware Approximate
Fri 02:57:00 PM 28.0597 -110.6581 144° Southeast  Level FlightAware Approximate
Fri 02:58:00 PM 27.9622 -110.5783 144° Southeast  Level FlightAware Approximate
Fri 02:59:00 PM 27.8647 -110.4986 144° Southeast  Level FlightAware Approximate
Fri 03:00:00 PM 27.7672 -110.4192 144° Southeast  Level FlightAware Approximate
Fri 03:01:00 PM 27.6696 -110.3398 144° Southeast  Level FlightAware Approximate
Fri 03:02:00 PM 27.5719 -110.2606 144° Southeast  Level FlightAware Approximate
Fri 03:03:00 PM 27.4743 -110.1814 144° Southeast  Level FlightAware Approximate
Fri 03:04:00 PM 27.3766 -110.1023 144° Southeast  Level FlightAware Approximate
Fri 03:05:00 PM 27.2789 -110.0235 144° Southeast  Level FlightAware Approximate
Fri 03:06:00 PM 27.1811 -109.9447 144° Southeast  Level FlightAware Approximate
Fri 03:07:00 PM 27.0833 -109.8661 144° Southeast  Level FlightAware Approximate
Fri 03:08:00 PM 26.9855 -109.7876 144° Southeast  Level FlightAware Approximate
Fri 03:09:00 PM 26.8876 -109.7093 144° Southeast  Level FlightAware Approximate
Fri 03:10:00 PM 26.7896 -109.6311 145° Southeast  Level FlightAware Approximate
Fri 03:11:00 PM 26.6916 -109.5530 145° Southeast  Level FlightAware Approximate
Fri 03:12:00 PM 26.5936 -109.4751 145° Southeast  Level FlightAware Approximate
Fri 03:13:00 PM 26.4955 -109.3973 145° Southeast  Level FlightAware Approximate
Fri 03:14:00 PM 26.3974 -109.3196 145° Southeast  Level FlightAware Approximate
Fri 03:15:00 PM 26.2993 -109.2421 145° Southeast  Level FlightAware Approximate
Fri 03:16:00 PM 26.2011 -109.1646 145° Southeast  Level FlightAware Approximate
Fri 03:17:00 PM 26.1028 -109.0874 145° Southeast  Level FlightAware Approximate
Fri 03:18:00 PM 26.0046 -109.0102 145° Southeast  Level FlightAware Approximate
Fri 03:19:00 PM 25.9062 -108.9332 145° Southeast  Level FlightAware Approximate
Fri 03:20:00 PM 25.8079 -108.8563 145° Southeast  Level FlightAware Approximate
Fri 03:21:00 PM 25.7095 -108.7795 145° Southeast  Level FlightAware Approximate
Fri 03:22:00 PM 25.6110 -108.7029 145° Southeast  Level FlightAware Approximate
Fri 03:23:00 PM 25.5126 -108.6264 145° Southeast  Level FlightAware Approximate
Fri 03:24:00 PM 25.4144 -108.5495 145° Southeast  Level FlightAware Approximate
Fri 03:25:00 PM 25.3162 -108.4726 145° Southeast  Level FlightAware Approximate
Fri 03:26:00 PM 25.2181 -108.3958 145° Southeast  Level FlightAware Approximate
Fri 03:27:00 PM 25.1198 -108.3191 145° Southeast  Level FlightAware Approximate
Fri 03:28:00 PM 25.0214 -108.2429 145° Southeast  Level FlightAware Approximate
Fri 03:29:00 PM 24.9228 -108.1668 145° Southeast  Level FlightAware Approximate
Fri 03:30:00 PM 24.8243 -108.0908 145° Southeast  Level FlightAware Approximate
Fri 03:31:00 PM 24.7257 -108.0150 145° Southeast  Level FlightAware Approximate
Fri 03:32:00 PM 24.6271 -107.9392 145° Southeast  Level FlightAware Approximate
Fri 03:33:00 PM 24.5284 -107.8636 145° Southeast  Level FlightAware Approximate
Fri 03:34:00 PM 24.4297 -107.7881 145° Southeast  Level FlightAware Approximate
Fri 03:35:00 PM 24.3310 -107.7128 145° Southeast  Level FlightAware Approximate
Fri 03:36:00 PM 24.2322 -107.6375 145° Southeast  Level FlightAware Approximate
Fri 03:37:00 PM 24.1334 -107.5624 145° Southeast  Level FlightAware Approximate
Fri 03:38:00 PM 24.0346 -107.4873 145° Southeast  Level FlightAware Approximate
Fri 03:39:00 PM 23.9357 -107.4124 145° Southeast  Level FlightAware Approximate
Fri 03:40:00 PM 23.8368 -107.3376 145° Southeast  Level FlightAware Approximate
Fri 03:41:00 PM 23.7378 -107.2629 145° Southeast  Level FlightAware Approximate
Fri 03:42:00 PM 23.6388 -107.1884 145° Southeast  Level FlightAware Approximate
Fri 03:43:00 PM 23.5398 -107.1139 145° Southeast  Level FlightAware Approximate
Fri 03:44:00 PM 23.4407 -107.0396 145° Southeast  Level FlightAware Approximate
Fri 03:45:00 PM 23.3416 -106.9653 145° Southeast  Level FlightAware Approximate
Fri 03:46:00 PM 23.2425 -106.8912 146° Southeast  Level FlightAware Approximate
Fri 03:47:00 PM 23.1433 -106.8172 146° Southeast  Level FlightAware Approximate
Fri 03:48:00 PM 23.0441 -106.7433 146° Southeast  Level FlightAware Approximate
Fri 03:49:00 PM 22.9449 -106.6695 146° Southeast  Level FlightAware Approximate
Fri 03:50:00 PM 22.8456 -106.5958 146° Southeast  Level FlightAware Approximate
Fri 03:51:00 PM 22.7463 -106.5222 146° Southeast  Level FlightAware Approximate
Fri 03:52:00 PM 22.6470 -106.4488 146° Southeast  Level FlightAware Approximate
Fri 03:53:00 PM 22.5476 -106.3754 146° Southeast  Level FlightAware Approximate
Fri 03:54:00 PM 22.4482 -106.3021 146° Southeast  Level FlightAware Approximate
Fri 03:55:00 PM 22.3482 -106.2299 147° Southeast  Level FlightAware Approximate
Fri 03:56:00 PM 22.2477 -106.1586 147° Southeast  Level FlightAware Approximate
Fri 03:57:00 PM 22.1472 -106.0873 147° Southeast  Level FlightAware Approximate
Fri 03:58:00 PM 22.0466 -106.0162 147° Southeast  Level FlightAware Approximate
Fri 03:59:00 PM 21.9464 -105.9445 146° Southeast  Level FlightAware Approximate
Fri 04:00:00 PM 21.8466 -105.8722 146° Southeast  Level FlightAware Approximate
Fri 04:01:00 PM 21.7467 -105.8000 146° Southeast  Level FlightAware Approximate
Fri 04:02:00 PM 21.6468 -105.7279 146° Southeast  Level FlightAware Approximate
Fri 04:03:00 PM 21.5469 -105.6559 146° Southeast  Level FlightAware Approximate
Fri 04:04:00 PM 21.4470 -105.5840 146° Southeast  Level FlightAware Approximate
Fri 04:05:00 PM 21.3470 -105.5122 146° Southeast  Level FlightAware Approximate
Fri 04:06:00 PM 21.2470 -105.4405 146° Southeast  Level FlightAware Approximate
Fri 04:07:00 PM 21.1470 -105.3689 146° Southeast  Level FlightAware Approximate
Fri 04:08:00 PM 21.0469 -105.2974 146° Southeast  Level FlightAware Approximate
Fri 04:09:00 PM 20.9468 -105.2260 146° Southeast  Level FlightAware Approximate
Fri 04:10:00 PM 20.8467 -105.1547 146° Southeast  Level FlightAware Approximate
Fri 04:11:00 PM 20.7464 -105.0837 147° Southeast  Level FlightAware Approximate
Fri 04:12:00 PM 20.6460 -105.0130 147° Southeast  Level FlightAware Approximate
Fri 04:13:00 PM 20.5261 -104.9286 147° Southeast  Level FlightAware Approximate
Fri 04:14:00 PM 20.4061 -104.8444 147° Southeast  Level FlightAware Approximate
Fri 04:15:00 PM 20.2861 -104.7602 147° Southeast  Level FlightAware Approximate
Fri 04:16:00 PM 20.1662 -104.6760 146° Southeast  Level FlightAware Approximate
Fri 04:17:00 PM 20.0467 -104.5911 146° Southeast  Level FlightAware Approximate
Fri 04:18:00 PM 19.9272 -104.5064 146° Southeast  Level FlightAware Approximate
Fri 04:19:00 PM 19.8076 -104.4219 146° Southeast  Level FlightAware Approximate
Fri 04:20:00 PM 19.6880 -104.3374 146° Southeast  Level FlightAware Approximate
Fri 04:21:00 PM 19.5684 -104.2531 146° Southeast  Level FlightAware Approximate
Fri 04:22:00 PM 19.5920 -104.1835 23° Northeast  Level FlightAware Approximate
Fri 04:23:00 PM 19.7246 -104.1249 23° Northeast  Level FlightAware Approximate
Fri 04:24:00 PM 19.8571 -104.0662 23° Northeast  Level FlightAware Approximate
Fri 04:25:00 PM 19.9897 -104.0075 23° Northeast  Level FlightAware Approximate
Fri 04:26:00 PM 20.1222 -103.9486 23° Northeast  Level FlightAware Approximate
Fri 04:27:00 PM 20.2548 -103.8897 23° Northeast  Level FlightAware Approximate
Fri 04:28:00 PM 20.3873 -103.8306 23° Northeast  Level FlightAware Approximate
Fri 04:29:00 PM 20.5198 -103.7715 23° Northeast  Level FlightAware Approximate
Fri 04:30:00 PM 20.6522 -103.7122 23° Northeast  Level FlightAware Approximate
Fri 04:31:00 PM 20.7845 -103.6526 23° Northeast  Level FlightAware Approximate
Fri 04:32:00 PM 20.9168 -103.5926 23° Northeast  Level FlightAware Approximate
Fri 04:33:00 PM 21.0490 -103.5325 23° Northeast  Level FlightAware Approximate
Fri 04:34:00 PM 21.1811 -103.4723 23° Northeast  Level FlightAware Approximate
Fri 04:35:00 PM 21.3126 -103.4104 25° Northeast  Level FlightAware Approximate
Fri 04:36:00 PM 21.4428 -103.3453 25° Northeast  Level FlightAware Approximate
Fri 04:37:00 PM 21.5747 -103.2843 23° Northeast  Level FlightAware Approximate
Fri 04:38:00 PM 21.7069 -103.2241 23° Northeast  Level FlightAware Approximate
Fri 04:39:00 PM 21.8392 -103.1638 23° Northeast  Level FlightAware Approximate
Fri 04:40:00 PM 21.9714 -103.1034 23° Northeast  Level FlightAware Approximate
Fri 04:41:00 PM 22.1036 -103.0428 23° Northeast  Level FlightAware Approximate
Fri 04:42:00 PM 22.2358 -102.9822 23° Northeast  Level FlightAware Approximate
Fri 04:43:00 PM 22.3679 -102.9215 23° Northeast  Level FlightAware Approximate
Fri 04:44:00 PM 22.5001 -102.8606 23° Northeast  Level FlightAware Approximate
Fri 04:45:00 PM 22.6322 -102.7996 23° Northeast  Level FlightAware Approximate
Fri 04:46:00 PM 22.7642 -102.7385 23° Northeast  Level FlightAware Approximate
Fri 04:47:00 PM 22.8734 -102.6724 135° Southeast  Level FlightAware Approximate
Fri 04:48:00 PM 22.7725 -102.5616 135° Southeast  Level FlightAware Approximate
Fri 04:49:00 PM 22.6715 -102.4509 135° Southeast  Level FlightAware Approximate
Fri 04:50:00 PM 22.5705 -102.3403 135° Southeast  Level FlightAware Approximate
Fri 04:51:00 PM 22.4694 -102.2299 135° Southeast  Level FlightAware Approximate
Fri 04:52:00 PM 22.3681 -102.1197 135° Southeast  Level FlightAware Approximate
Fri 04:53:00 PM 22.2687 -102.0078 134° Southeast  Level FlightAware Approximate
Fri 04:54:00 PM 22.1696 -101.8955 134° Southeast  Level FlightAware Approximate
Fri 04:55:00 PM 22.0719 -101.7851 134° Southeast  Level FlightAware Approximate
Fri 04:56:00 PM 21.9741 -101.6749 134° Southeast  Level FlightAware Approximate
Fri 04:57:00 PM 21.8762 -101.5649 134° Southeast  Level FlightAware Approximate
Fri 04:58:00 PM 21.7784 -101.4548 134° Southeast  Level FlightAware Approximate
Fri 04:59:00 PM 21.6805 -101.3450 134° Southeast  Level FlightAware Approximate
Fri 05:00:00 PM 21.5819 -101.2359 134° Southeast  Level FlightAware Approximate
Fri 05:01:00 PM 21.4833 -101.1269 134° Southeast  Level FlightAware Approximate
Fri 05:02:00 PM 21.3846 -101.0181 134° Southeast  Level FlightAware Approximate

Login

Don't have an account? Register now (free) for customized features, flight alerts, and more!